createdAt,value
2019-04-16T00:04:49.595Z,100747.91
2019-04-16T00:10:04.927Z,100740.41
2019-04-16T00:15:06.719Z,100734.92
2019-04-16T00:20:08.602Z,100734.72
2019-04-16T00:25:10.316Z,100728.08
2019-04-16T00:30:13.840Z,100720.70
2019-04-16T00:35:16.290Z,100714.41
2019-04-16T00:40:18.055Z,100714.97
2019-04-16T00:45:19.738Z,100710.78
2019-04-16T00:50:21.364Z,100708.30
2019-04-16T00:55:22.963Z,100706.95
2019-04-16T01:00:24.614Z,100700.83
2019-04-16T01:05:26.163Z,100708.13
2019-04-16T01:10:27.722Z,100698.14
2019-04-16T01:15:31.901Z,100696.50
2019-04-16T01:20:32.761Z,100692.05
2019-04-16T01:25:34.445Z,100696.14
2019-04-16T01:30:48.781Z,100700.52
2019-04-16T01:35:59.269Z,100702.47
2019-04-16T01:41:02.987Z,100689.94
2019-04-16T01:46:04.545Z,100691.53
2019-04-16T01:51:06.131Z,100686.34
2019-04-16T01:56:07.692Z,100685.33
2019-04-16T02:01:11.164Z,100684.87
2019-04-16T02:06:12.827Z,100689.40
2019-04-16T02:11:14.372Z,100691.17
2019-04-16T02:16:15.949Z,100694.28
2019-04-16T02:21:17.522Z,100695.38
2019-04-16T02:26:20.510Z,100700.97
2019-04-16T02:31:22.593Z,100694.87
2019-04-16T02:36:24.166Z,100693.11
2019-04-16T02:41:25.731Z,100695.03
2019-04-16T02:46:32.301Z,100696.97
2019-04-16T02:51:41.343Z,100697.92
2019-04-16T02:57:15.433Z,100699.97
2019-04-16T03:02:35.344Z,100698.70
2019-04-16T03:07:36.911Z,100701.91
2019-04-16T03:12:38.672Z,100692.19
2019-04-16T03:17:44.815Z,100694.94
2019-04-16T03:22:46.471Z,100693.52
2019-04-16T03:27:48.009Z,100688.91
2019-04-16T03:32:50.256Z,100686.30
2019-04-16T03:37:51.830Z,100682.75
2019-04-16T03:42:53.424Z,100687.77
2019-04-16T03:47:55.009Z,100684.46
2019-04-16T03:52:56.596Z,100682.06
2019-04-16T03:57:58.255Z,100696.56
2019-04-16T04:02:59.826Z,100692.05
2019-04-16T04:08:01.490Z,100684.50
2019-04-16T04:13:04.902Z,100683.78
2019-04-16T04:18:07.901Z,100682.39
2019-04-16T04:23:10.181Z,100685.02
2019-04-16T04:28:11.766Z,100689.41
2019-04-16T04:33:33.007Z,100695.70
2019-04-16T04:38:37.446Z,100702.50
2019-04-16T04:43:38.369Z,100699.77
2019-04-16T04:48:39.924Z,100699.31
2019-04-16T04:53:41.627Z,100698.72
2019-04-16T04:58:43.216Z,100693.84
2019-04-16T05:03:55.925Z,100696.09
2019-04-16T05:09:00.224Z,100690.99
2019-04-16T05:14:00.967Z,100691.34
2019-04-16T05:19:02.530Z,100687.77
2019-04-16T05:24:04.196Z,100686.81
2019-04-16T05:29:16.519Z,100689.16
2019-04-16T05:34:18.116Z,100696.39
2019-04-16T05:39:19.202Z,100704.02
2019-04-16T05:44:20.827Z,100706.84
2019-04-16T05:49:25.644Z,100702.79
2019-04-16T05:54:38.545Z,100707.87
2019-04-16T05:59:40.125Z,100709.52
2019-04-16T06:04:41.681Z,100704.63
2019-04-16T06:09:44.437Z,100697.63
2019-04-16T06:14:54.013Z,100707.09
2019-04-16T06:20:19.178Z,100707.80
2019-04-16T06:25:33.828Z,100697.80
2019-04-16T06:30:57.990Z,100703.69
2019-04-16T06:36:07.784Z,100699.84
2019-04-16T06:41:13.156Z,100702.42
2019-04-16T06:46:39.471Z,100705.88
2019-04-16T06:52:08.223Z,100707.14
2019-04-16T06:57:42.943Z,100707.91
2019-04-16T07:03:19.765Z,100707.93
2019-04-16T07:08:37.397Z,100702.19
2019-04-16T07:13:33.905Z,100699.00
2019-04-16T07:18:38.225Z,100699.05
2019-04-16T07:23:39.111Z,100695.06
2019-04-16T07:28:58.570Z,100696.52
2019-04-16T07:34:29.992Z,100699.19
2019-04-16T07:39:46.453Z,100694.67
2019-04-16T07:44:56.070Z,100693.88
2019-04-16T07:50:06.760Z,100693.25
2019-04-16T07:55:37.277Z,100696.95
2019-04-16T08:00:41.416Z,100698.27
2019-04-16T08:05:42.310Z,100694.19
2019-04-16T08:10:43.854Z,100694.08
2019-04-16T08:15:45.524Z,100700.38
2019-04-16T08:21:00.519Z,100693.69
2019-04-16T08:25:58.703Z,100693.95
2019-04-16T08:30:53.991Z,100690.81
2019-04-16T08:35:55.576Z,100688.67
2019-04-16T08:40:57.110Z,100693.41
2019-04-16T08:45:58.835Z,100692.42
2019-04-16T08:51:00.513Z,100689.95
2019-04-16T08:56:02.149Z,100694.40
2019-04-16T09:01:05.216Z,100692.60
2019-04-16T09:06:06.881Z,100692.78
2019-04-16T09:11:21.817Z,100688.57
2019-04-16T09:16:11.884Z,100695.97
2019-04-16T09:21:13.432Z,100696.95
2019-04-16T09:26:37.420Z,100688.13
2019-04-16T09:32:01.558Z,100692.34
2019-04-16T09:37:19.163Z,100696.02
2019-04-16T09:42:20.842Z,100687.23
2019-04-16T09:47:22.417Z,100677.31
2019-04-16T09:52:24.223Z,100690.29
2019-04-16T09:57:30.907Z,100688.55
2019-04-16T10:02:32.480Z,100687.66
2019-04-16T10:07:34.435Z,100687.58
2019-04-16T10:12:35.999Z,100693.83
2019-04-16T10:17:38.425Z,100696.88
2019-04-16T10:22:40.059Z,100691.20
2019-04-16T10:27:43.611Z,100686.31
2019-04-16T10:32:45.201Z,100686.57
2019-04-16T10:37:46.744Z,100676.72
2019-04-16T10:43:23.115Z,100679.95
2019-04-16T10:48:44.319Z,100674.55
2019-04-16T10:53:54.774Z,100661.58
2019-04-16T10:59:10.432Z,100664.59
2019-04-16T11:04:16.945Z,100653.88
2019-04-16T11:09:18.531Z,100666.47
2019-04-16T11:14:20.081Z,100661.02
2019-04-16T11:19:21.653Z,100654.11
2019-04-16T11:24:23.332Z,100647.50
2019-04-16T11:29:24.895Z,100648.17
2019-04-16T11:34:26.575Z,100641.89
2019-04-16T11:39:28.116Z,100641.73
2019-04-16T11:44:29.775Z,100634.95
2019-04-16T11:49:31.328Z,100634.78
2019-04-16T11:54:32.965Z,100636.29
2019-04-16T11:59:37.907Z,100635.13
2019-04-16T12:05:12.648Z,100626.56
2019-04-16T12:10:34.023Z,100632.70
2019-04-16T12:15:55.175Z,100626.31
2019-04-16T12:21:00.836Z,100621.58
2019-04-16T12:26:31.287Z,100618.80
2019-04-16T12:31:51.115Z,100622.47
2019-04-16T12:37:10.700Z,100612.16
2019-04-16T12:42:18.739Z,100601.34
2019-04-16T12:47:38.989Z,100606.39
2019-04-16T12:52:52.003Z,100609.69
2019-04-16T12:58:02.598Z,100604.86
2019-04-16T13:03:22.516Z,100602.75
2019-04-16T13:08:31.162Z,100597.88
2019-04-16T13:13:51.110Z,100591.73
2019-04-16T13:19:21.214Z,100589.30
2019-04-16T13:24:35.901Z,100586.81
2019-04-16T13:29:37.476Z,100586.50
2019-04-16T13:34:39.229Z,100591.22
2019-04-16T13:40:03.203Z,100582.06
2019-04-16T13:45:17.569Z,100576.45
2019-04-16T13:50:22.888Z,100566.39
2019-04-16T13:55:44.641Z,100573.08
2019-04-16T14:00:51.508Z,100582.61
2019-04-16T14:05:53.073Z,100573.03
2019-04-16T14:10:54.635Z,100579.06
2019-04-16T14:15:56.301Z,100578.16
2019-04-16T14:20:57.992Z,100572.80
2019-04-16T14:25:59.591Z,100567.16
2019-04-16T14:31:01.347Z,100576.20
2019-04-16T14:36:04.159Z,100576.37
2019-04-16T14:41:06.035Z,100582.42
2019-04-16T14:46:09.266Z,100583.91
2019-04-16T14:51:11.256Z,100586.60
2019-04-16T14:56:19.732Z,100584.55
2019-04-16T15:01:39.477Z,100575.24
2019-04-16T15:07:03.933Z,100584.76
2019-04-16T15:12:34.762Z,100587.62
2019-04-16T15:17:45.583Z,100592.19
2019-04-16T15:23:06.828Z,100597.59
2019-04-16T15:28:21.390Z,100592.77
2019-04-16T15:33:39.780Z,100590.24
2019-04-16T15:39:02.894Z,100592.05
2019-04-16T15:44:13.724Z,100596.12
2019-04-16T15:49:30.326Z,100596.28
2019-04-16T15:54:50.265Z,100597.08
2019-04-16T16:00:17.109Z,100598.12
2019-04-16T16:05:29.323Z,100596.35
2019-04-16T16:10:37.231Z,100594.28
2019-04-16T16:15:40.490Z,100603.52
2019-04-16T16:20:42.248Z,100596.71
2019-04-16T16:25:43.810Z,100610.95
2019-04-16T16:30:45.387Z,100608.02
2019-04-16T16:35:57.716Z,100610.44
2019-04-16T16:40:50.590Z,100625.01
2019-04-16T16:46:14.614Z,100620.47
2019-04-16T16:51:16.401Z,100623.00
2019-04-16T16:56:37.615Z,100619.64
2019-04-16T17:01:47.267Z,100619.05
2019-04-16T17:06:48.817Z,100621.06
2019-04-16T17:11:50.505Z,100626.09
2019-04-16T17:16:52.055Z,100636.29
2019-04-16T17:21:54.192Z,100625.28
2019-04-16T17:26:55.773Z,100628.00
2019-04-16T17:31:57.448Z,100637.71
2019-04-16T17:36:59.000Z,100636.09
2019-04-16T17:42:05.157Z,100631.67
2019-04-16T17:47:41.722Z,100644.13
2019-04-16T17:52:48.183Z,100653.00
2019-04-16T17:58:06.339Z,100652.42
2019-04-16T18:03:39.919Z,100661.91
2019-04-16T18:08:56.771Z,100677.22
2019-04-16T18:14:32.870Z,100669.00
2019-04-16T18:20:03.141Z,100683.66
2019-04-16T18:25:21.522Z,100689.62
2019-04-16T18:30:41.157Z,100697.04
2019-04-16T18:35:53.072Z,100711.31
2019-04-16T18:41:17.150Z,100712.17
2019-04-16T18:46:23.925Z,100716.52
2019-04-16T18:51:32.867Z,100723.16
2019-04-16T18:56:30.872Z,100733.26
2019-04-16T19:01:33.453Z,100741.20
2019-04-16T19:06:35.147Z,100741.37
2019-04-16T19:11:36.834Z,100752.11
2019-04-16T19:16:38.490Z,100759.06
2019-04-16T19:21:42.392Z,100767.48
2019-04-16T19:26:43.840Z,100772.75
2019-04-16T19:31:45.530Z,100776.88
2019-04-16T19:36:47.204Z,100779.98
2019-04-16T19:41:48.773Z,100787.56
2019-04-16T19:46:52.476Z,100781.27
2019-04-16T19:51:54.125Z,100791.17
2019-04-16T19:56:55.705Z,100789.83
2019-04-16T20:01:59.808Z,100796.90
2019-04-16T20:07:01.806Z,100801.66
2019-04-16T20:12:03.684Z,100802.30
2019-04-16T20:17:05.268Z,100806.41
2019-04-16T20:22:06.843Z,100808.55
2019-04-16T20:27:08.419Z,100805.67
2019-04-16T20:32:10.010Z,100811.61
2019-04-16T20:37:11.606Z,100814.73
2019-04-16T20:42:13.351Z,100817.50
2019-04-16T20:47:15.013Z,100820.11
2019-04-16T20:52:16.555Z,100820.28
2019-04-16T20:57:18.150Z,100827.36
2019-04-16T21:02:20.020Z,100826.31
2019-04-16T21:07:21.706Z,100828.61
2019-04-16T21:12:23.289Z,100827.90
2019-04-16T21:17:24.859Z,100824.58
2019-04-16T21:22:27.836Z,100815.31
2019-04-16T21:27:32.411Z,100821.70
2019-04-16T21:32:58.889Z,100835.92
2019-04-16T21:38:18.706Z,100838.86
2019-04-16T21:43:20.269Z,100835.03
2019-04-16T21:48:23.843Z,100841.28
2019-04-16T21:53:27.923Z,100846.67
2019-04-16T21:58:29.010Z,100844.30
2019-04-16T22:03:31.472Z,100845.44
2019-04-16T22:08:33.159Z,100850.80
2019-04-16T22:13:34.756Z,100849.58
2019-04-16T22:18:37.669Z,100856.30
2019-04-16T22:29:59.015Z,100865.88
2019-04-16T22:35:00.601Z,100861.06
2019-04-16T22:40:22.859Z,100860.36
2019-04-16T22:45:32.182Z,100852.40
2019-04-16T22:50:34.724Z,100861.84
2019-04-16T22:55:37.717Z,100859.94
2019-04-16T23:00:44.500Z,100865.78
2019-04-16T23:05:46.198Z,100859.59
2019-04-16T23:10:50.656Z,100866.61
2019-04-16T23:15:51.243Z,100860.66
2019-04-16T23:20:52.822Z,100865.70
2019-04-16T23:25:59.001Z,100867.02
2019-04-16T23:30:57.910Z,100872.45
2019-04-16T23:35:59.473Z,100878.05
2019-04-16T23:41:01.159Z,100878.84
2019-04-16T23:46:25.572Z,100881.35
2019-04-16T23:51:36.950Z,100880.59
2019-04-16T23:56:44.827Z,100879.52
